Time;durP1;ratioP1;P1;durP2;ratioP2;P2;SDS_P1;SDS_P2;PMS_P1;PMS_P2;Temp;Humidity;BMP_temperature;BMP_pressure;BME280_temperature;BME280_humidity;BME280_pressure;Samples;Min_cycle;Max_cycle;Signal;HPM_P1;HPM_P2
2023/02/19 00:04:41;;;;;;;21.60;6.35;;;;;;;9.12;100.00;101813.41;10444408;28;20531;-65
2023/02/19 00:09:41;;;;;;;22.90;5.60;;;;;;;9.08;100.00;101808.34;10462370;28;20036;-65
2023/02/19 00:14:42;;;;;;;20.20;5.78;;;;;;;9.15;100.00;101810.38;10461319;28;20126;-65
2023/02/19 00:19:42;;;;;;;19.85;5.55;;;;;;;9.13;100.00;101812.44;10461622;28;20094;-64
2023/02/19 00:24:43;;;;;;;25.40;4.40;;;;;;;9.14;100.00;101808.69;10477846;28;20041;-65
2023/02/19 00:29:43;;;;;;;8.02;4.70;;;;;;;9.21;100.00;101809.72;10443808;28;20148;-64
2023/02/19 00:34:43;;;;;;;18.15;5.55;;;;;;;9.22;100.00;101822.22;10460377;28;20037;-64
2023/02/19 00:39:44;;;;;;;11.18;5.05;;;;;;;9.20;100.00;101818.84;10461773;28;20104;-64
2023/02/19 00:44:44;;;;;;;13.38;4.95;;;;;;;9.19;100.00;101817.13;10462935;28;20029;-64
2023/02/19 00:49:44;;;;;;;27.48;5.55;;;;;;;9.21;100.00;101834.03;10480919;28;20037;-65
2023/02/19 00:54:45;;;;;;;24.20;6.20;;;;;;;9.21;100.00;101831.34;10463236;28;20060;-65
2023/02/19 00:59:45;;;;;;;17.90;5.13;;;;;;;9.21;100.00;101840.28;10460640;28;20067;-64
2023/02/19 01:04:46;;;;;;;38.35;6.40;;;;;;;9.22;100.00;101846.53;10460714;28;20114;-65
2023/02/19 01:09:46;;;;;;;12.40;5.55;;;;;;;9.24;100.00;101839.13;10442108;28;20033;-65
2023/02/19 01:14:46;;;;;;;13.95;6.35;;;;;;;9.27;100.00;101852.31;10460239;28;20033;-66
2023/02/19 01:19:47;;;;;;;16.60;5.22;;;;;;;9.26;100.00;101853.31;10458844;28;20033;-65
2023/02/19 01:24:47;;;;;;;15.05;4.18;;;;;;;9.27;100.00;101857.72;10441563;28;20033;-66
2023/02/19 01:29:48;;;;;;;17.15;4.57;;;;;;;9.29;100.00;101845.72;10441556;28;20392;-66
2023/02/19 01:34:48;;;;;;;18.33;5.90;;;;;;;9.26;100.00;101850.63;10441711;28;20041;-65
2023/02/19 01:39:49;;;;;;;16.45;5.45;;;;;;;9.27;100.00;101836.09;10458818;28;20040;-64
2023/02/19 01:45:23;;;;;;;16.70;6.10;;;;;;;9.20;100.00;101835.06;10457747;28;20037;-65
2023/02/19 01:50:24;;;;;;;16.85;4.40;;;;;;;9.20;100.00;101860.22;10458309;28;20029;-65
2023/02/19 01:55:24;;;;;;;34.38;5.88;;;;;;;9.20;100.00;101852.13;10457868;28;20033;-65
2023/02/19 02:00:25;;;;;;;21.58;5.75;;;;;;;9.26;100.00;101861.44;10457238;28;20072;-65
2023/02/19 02:05:43;;;;;;;25.17;4.88;;;;;;;9.21;100.00;101864.59;10438823;28;20051;-65
2023/02/19 02:10:43;;;;;;;18.17;4.10;;;;;;;9.14;100.00;101857.34;10471472;28;20041;-65
2023/02/19 02:16:15;;;;;;;21.17;5.70;;;;;;;9.14;100.00;101869.00;10457214;28;20486;-65
2023/02/19 02:22:12;;;;;;;22.35;5.65;;;;;;;9.14;100.00;101865.44;10457665;28;20029;-65
2023/02/19 02:27:15;;;;;;;9.77;3.60;;;;;;;9.16;100.00;101866.97;10394815;28;20076;-65
2023/02/19 02:32:20;;;;;;;19.85;5.97;;;;;;;9.20;100.00;101871.03;10446411;28;20041;-65
2023/02/19 02:37:20;;;;;;;10.52;4.32;;;;;;;9.22;100.00;101871.72;10471933;28;20040;-65
2023/02/19 02:42:27;;;;;;;30.17;5.35;;;;;;;9.24;100.00;101871.56;10455323;28;20032;-65
2023/02/19 02:47:41;;;;;;;13.55;4.93;;;;;;;9.21;100.00;101872.72;10471812;28;20033;-66
2023/02/19 02:58:00;;;;;;;14.70;5.00;;;;;;;9.24;100.00;101893.16;10469548;28;20057;-65
2023/02/19 03:03:01;;;;;;;19.77;6.32;;;;;;;9.24;100.00;101901.28;10456691;28;20033;-65
2023/02/19 03:08:05;;;;;;;18.95;6.47;;;;;;;9.20;100.00;101891.81;10438051;28;20051;-65
2023/02/19 03:29:22;;;;;;;11.25;4.18;;;;;;;9.14;100.00;101914.09;10463295;28;20066;-66
2023/02/19 03:34:25;;;;;;;11.60;4.70;;;;;;;9.11;100.00;101925.22;10461361;28;20036;-66
2023/02/19 03:39:26;;;;;;;9.20;4.47;;;;;;;9.05;100.00;101927.56;10445211;28;20025;-65
2023/02/19 03:44:52;;;;;;;10.32;4.13;;;;;;;9.07;100.00;101939.06;10463689;28;20491;-65
2023/02/19 03:50:12;;;;;;;21.33;5.85;;;;;;;9.02;100.00;101941.38;10461831;28;20021;-65
2023/02/19 03:55:30;;;;;;;12.70;4.13;;;;;;;8.92;100.00;101945.22;10463969;28;20427;-65
2023/02/19 04:01:03;;;;;;;10.43;3.33;;;;;;;8.88;100.00;101955.50;10462277;28;20068;-64
2023/02/19 04:06:08;;;;;;;27.90;5.13;;;;;;;8.88;100.00;101960.06;10478116;28;20099;-64
2023/02/19 04:11:09;;;;;;;32.58;5.78;;;;;;;8.82;100.00;101959.69;10445255;28;20040;-64
2023/02/19 04:16:12;;;;;;;24.00;5.78;;;;;;;8.77;100.00;101955.75;10443624;28;20039;-65
2023/02/19 04:21:13;;;;;;;19.17;5.65;;;;;;;8.68;100.00;101957.59;10477814;28;20079;-67
2023/02/19 04:26:13;;;;;;;16.45;5.40;;;;;;;8.65;100.00;101984.91;10476503;28;20041;-66
2023/02/19 04:31:13;;;;;;;25.67;6.15;;;;;;;8.59;100.00;101974.75;10444466;28;20029;-66
2023/02/19 04:36:14;;;;;;;17.58;5.57;;;;;;;8.66;100.00;101988.47;10462140;28;20028;-66
2023/02/19 04:41:14;;;;;;;20.40;5.63;;;;;;;8.67;100.00;102006.34;10476767;28;20040;-66
2023/02/19 04:46:14;;;;;;;16.75;4.80;;;;;;;8.69;100.00;102013.28;10460980;28;20037;-66
2023/02/19 04:51:15;;;;;;;11.90;4.57;;;;;;;8.67;100.00;102007.19;10460884;28;20162;-65
2023/02/19 04:56:15;;;;;;;15.95;4.50;;;;;;;8.70;100.00;102035.72;10475887;28;20155;-66
2023/02/19 05:01:16;;;;;;;14.25;5.35;;;;;;;8.71;100.00;102027.50;10461828;28;20045;-66
2023/02/19 05:06:16;;;;;;;18.48;4.57;;;;;;;8.74;100.00;102047.91;10476163;28;20482;-65
2023/02/19 05:11:17;;;;;;;15.15;6.07;;;;;;;8.66;100.00;102064.06;10458173;28;20029;-66
2023/02/19 05:16:17;;;;;;;14.38;4.85;;;;;;;8.65;100.00;102065.03;10459461;28;20029;-66
2023/02/19 05:21:18;;;;;;;16.60;5.60;;;;;;;8.65;100.00;102074.03;10459661;28;20056;-66
2023/02/19 05:26:20;;;;;;;12.60;4.57;;;;;;;8.68;100.00;102092.63;10475268;28;20380;-67
2023/02/19 05:31:21;;;;;;;15.18;6.25;;;;;;;8.66;100.00;102082.97;10459181;28;20033;-66
2023/02/19 05:36:21;;;;;;;13.10;4.07;;;;;;;8.56;100.00;102075.78;10473732;28;20034;-66
2023/02/19 05:41:23;;;;;;;17.58;4.60;;;;;;;8.54;100.00;102076.94;10458801;28;20465;-65
2023/02/19 05:46:26;;;;;;;16.13;3.97;;;;;;;8.54;100.00;102071.53;10439992;28;20040;-66
2023/02/19 05:51:26;;;;;;;10.02;4.78;;;;;;;8.48;100.00;102083.81;10473587;28;20029;-66
2023/02/19 05:56:32;;;;;;;15.43;4.72;;;;;;;8.47;100.00;102082.13;10458751;28;20457;-66
2023/02/19 06:01:33;;;;;;;17.42;6.05;;;;;;;8.50;100.00;102083.66;10459574;28;20051;-66
2023/02/19 06:06:34;;;;;;;10.65;4.72;;;;;;;8.48;100.00;102091.91;10457432;28;20041;-67
2023/02/19 06:11:34;;;;;;;16.17;5.00;;;;;;;8.46;100.00;102104.72;10444470;28;20075;-67
2023/02/19 06:16:35;;;;;;;12.50;5.20;;;;;;;8.48;100.00;102104.56;10480303;28;20049;-68
2023/02/19 06:21:35;;;;;;;20.00;4.65;;;;;;;8.45;100.00;102116.50;10477791;28;20431;-67
2023/02/19 06:26:36;;;;;;;15.85;4.72;;;;;;;8.47;100.00;102116.38;10474294;28;20041;-67
2023/02/19 06:31:36;;;;;;;15.10;4.43;;;;;;;8.47;100.00;102124.47;10458105;28;20047;-66
2023/02/19 06:36:36;;;;;;;5.80;3.80;;;;;;;8.48;100.00;102121.59;10455302;28;20428;-66
2023/02/19 06:41:37;;;;;;;19.98;5.07;;;;;;;8.52;100.00;102135.63;10455991;28;20045;-67
2023/02/19 06:46:37;;;;;;;9.32;4.05;;;;;;;8.52;100.00;102139.22;10457958;28;20064;-66
2023/02/19 06:51:38;;;;;;;10.10;4.32;;;;;;;8.52;100.00;102138.34;10455750;28;20033;-67
2023/02/19 06:56:38;;;;;;;19.30;7.05;;;;;;;8.52;100.00;102146.44;10438252;28;20472;-67
2023/02/19 07:01:39;;;;;;;11.70;4.18;;;;;;;8.51;100.00;102152.84;10455408;28;20171;-66
2023/02/19 07:06:39;;;;;;;20.00;6.50;;;;;;;8.50;100.00;102159.25;10438611;28;20106;-67
2023/02/19 07:11:40;;;;;;;17.50;5.50;;;;;;;8.50;100.00;102175.47;10456145;28;20041;-65
2023/02/19 07:16:40;;;;;;;11.25;5.05;;;;;;;8.46;100.00;102180.31;10455010;28;20358;-66
2023/02/19 07:21:41;;;;;;;16.67;4.45;;;;;;;8.50;100.00;102197.91;10438118;28;20033;-66
2023/02/19 07:26:41;;;;;;;14.63;6.13;;;;;;;8.52;100.00;102203.13;10455753;28;20388;-66
2023/02/19 07:31:42;;;;;;;19.27;5.22;;;;;;;8.55;100.00;102216.31;10454344;28;20044;-67
2023/02/19 07:36:42;;;;;;;11.95;5.45;;;;;;;8.55;100.00;102237.94;10437818;28;20112;-65
2023/02/19 07:41:42;;;;;;;10.80;5.18;;;;;;;8.51;100.00;102237.38;10455005;28;20033;-66
2023/02/19 07:46:43;;;;;;;15.05;4.15;;;;;;;8.48;100.00;102247.63;10437063;28;20037;-67
2023/02/19 07:51:44;;;;;;;15.30;5.07;;;;;;;8.49;100.00;102243.97;10471100;28;20036;-66
2023/02/19 07:56:44;;;;;;;15.63;4.93;;;;;;;8.50;100.00;102276.19;10455636;28;20469;-66
2023/02/19 08:07:04;;;;;;;22.70;4.78;;;;;;;8.43;100.00;102283.19;10447463;28;20044;-66
2023/02/19 08:17:23;;;;;;;11.52;4.70;;;;;;;8.48;100.00;102288.97;10462116;28;20037;-66
2023/02/19 08:22:24;;;;;;;12.80;4.90;;;;;;;8.56;100.00;102296.34;10461347;28;20041;-68
2023/02/19 08:27:24;;;;;;;8.43;4.65;;;;;;;8.59;100.00;102288.78;10427314;28;20057;-66
2023/02/19 08:32:24;;;;;;;21.80;6.13;;;;;;;8.63;100.00;102304.69;10461285;28;20041;-66
2023/02/19 08:37:25;;;;;;;24.60;5.45;;;;;;;8.67;100.00;102306.09;10477250;28;20115;-66
2023/02/19 08:42:27;;;;;;;16.85;4.55;;;;;;;8.84;100.00;102300.72;10461990;28;20072;-67
2023/02/19 08:47:27;;;;;;;11.82;5.38;;;;;;;8.85;100.00;102315.94;10466627;28;20144;-67
2023/02/19 08:52:28;;;;;;;23.50;4.63;;;;;;;8.83;100.00;102308.97;10463606;28;20040;-67
2023/02/19 08:57:28;;;;;;;7.00;4.70;;;;;;;8.71;100.00;102302.06;10464062;28;20057;-67
2023/02/19 09:02:29;;;;;;;9.57;3.67;;;;;;;8.73;100.00;102289.28;10464099;28;20102;-66
2023/02/19 09:07:30;;;;;;;7.88;4.43;;;;;;;8.95;100.00;102299.66;10463475;28;20384;-67
2023/02/19 09:12:32;;;;;;;13.60;4.72;;;;;;;9.17;100.00;102325.41;10463942;28;20037;-66
2023/02/19 09:17:32;;;;;;;14.27;6.07;;;;;;;9.99;100.00;102326.94;10463734;28;20025;-67
2023/02/19 09:22:33;;;;;;;11.70;5.10;;;;;;;10.86;100.00;102330.44;10465921;28;20431;-66
2023/02/19 09:27:34;;;;;;;19.35;5.25;;;;;;;11.57;100.00;102356.19;10466549;28;20037;-68
2023/02/19 09:32:34;;;;;;;13.65;3.35;;;;;;;11.40;100.00;102365.31;10478825;28;20029;-66
2023/02/19 09:37:35;;;;;;;5.55;2.72;;;;;;;11.03;100.00;102374.72;10461273;28;20033;-68
2023/02/19 09:42:35;;;;;;;9.35;2.72;;;;;;;10.36;100.00;102381.84;10460443;28;20032;-67
2023/02/19 09:47:36;;;;;;;11.02;3.35;;;;;;;9.87;100.00;102395.00;10460305;28;20098;-67
2023/02/19 09:52:44;;;;;;;5.68;1.92;;;;;;;9.62;100.00;102419.13;10444531;28;20602;-66
2023/02/19 09:57:44;;;;;;;5.97;1.63;;;;;;;9.32;100.00;102425.75;10462307;28;20032;-66
2023/02/19 10:02:45;;;;;;;1.95;1.58;;;;;;;9.19;100.00;102409.00;10458538;28;20088;-67
2023/02/19 10:07:47;;;;;;;4.40;2.20;;;;;;;9.07;100.00;102416.50;10442059;28;20048;-67
2023/02/19 10:12:53;;;;;;;2.40;1.30;;;;;;;9.02;100.00;102419.63;10441501;28;20071;-68
2023/02/19 10:17:53;;;;;;;14.23;3.50;;;;;;;9.06;100.00;102426.47;10458513;28;20060;-65
2023/02/19 10:23:06;;;;;;;10.73;2.30;;;;;;;9.06;100.00;102439.97;10459415;28;20101;-66
2023/02/19 10:28:09;;;;;;;6.18;2.35;;;;;;;9.10;100.00;102445.06;10456648;28;20132;-67
2023/02/19 10:33:11;;;;;;;2.67;2.28;;;;;;;8.96;100.00;102457.22;10456634;28;20033;-68
2023/02/19 10:38:14;;;;;;;6.28;2.47;;;;;;;8.93;100.00;102463.75;10439266;28;20042;-68
2023/02/19 10:43:35;;;;;;;8.98;2.20;;;;;;;8.93;100.00;102460.19;10455963;28;20457;-67
2023/02/19 10:48:37;;;;;;;5.25;1.95;;;;;;;9.00;100.00;102473.00;10471590;28;20029;-69
2023/02/19 10:53:45;;;;;;;4.75;1.75;;;;;;;9.24;100.00;102458.06;10438289;28;20043;-68
2023/02/19 10:58:46;;;;;;;2.80;1.20;;;;;;;9.52;100.00;102462.47;10457122;28;20064;-67
2023/02/19 11:04:13;;;;;;;3.20;1.23;;;;;;;9.66;100.00;102457.53;10471553;28;20048;-67
2023/02/19 11:09:23;;;;;;;;;;;;;;;9.65;100.00;102458.53;10439188;28;20059;-66
2023/02/19 11:14:23;;;;;;;7.57;3.58;;;;;;;9.66;100.00;102458.38;10471292;28;19947;-67
2023/02/19 11:19:35;;;;;;;7.40;2.35;;;;;;;9.80;100.00;102456.16;10471015;28;20075;-67
2023/02/19 11:24:39;;;;;;;8.98;2.35;;;;;;;9.89;100.00;102455.19;10456452;28;20028;-67
2023/02/19 11:29:39;;;;;;;10.25;1.25;;;;;;;9.91;100.00;102455.91;10438041;28;20100;-67
2023/02/19 11:34:40;;;;;;;1.92;1.33;;;;;;;10.07;100.00;102457.91;10438497;28;20377;-68
2023/02/19 11:39:42;;;;;;;2.75;1.55;;;;;;;10.00;100.00;102460.41;10445394;28;20056;-67
2023/02/19 11:44:53;;;;;;;9.88;2.30;;;;;;;9.74;100.00;102463.03;10461922;28;20136;-68
2023/02/19 11:50:08;;;;;;;10.68;2.10;;;;;;;9.46;100.00;102457.66;10478429;28;20106;-68
2023/02/19 11:55:12;;;;;;;3.88;2.40;;;;;;;9.38;100.00;102454.88;10460362;28;20051;-67
2023/02/19 12:00:24;;;;;;;9.25;2.65;;;;;;;9.51;100.00;102463.47;10461912;28;20049;-67
2023/02/19 12:05:28;;;;;;;12.40;1.90;;;;;;;9.77;100.00;102468.97;10463312;28;20044;-67
2023/02/19 12:11:04;;;;;;;4.13;1.40;;;;;;;10.38;100.00;102482.75;10462106;28;20345;-67
2023/02/19 12:16:10;;;;;;;1.20;1.10;;;;;;;10.38;100.00;102471.91;10450343;28;20045;-70
2023/02/19 12:21:31;;;;;;;3.28;1.23;;;;;;;10.32;100.00;102481.50;10460654;28;20029;-69
2023/02/19 12:26:50;;;;;;;2.03;1.08;;;;;;;10.15;100.00;102488.63;10474922;28;20380;-68
2023/02/19 12:31:54;;;;;;;3.45;1.80;;;;;;;9.96;100.00;102502.31;10461825;28;20373;-67
2023/02/19 12:37:07;;;;;;;1.35;1.25;;;;;;;10.27;100.00;102518.19;10475964;28;20099;-68
2023/02/19 12:42:45;;;;;;;2.83;1.27;;;;;;;10.40;100.00;102513.22;10476111;28;20032;-68
2023/02/19 12:47:56;;;;;;;1.70;0.95;;;;;;;9.77;100.00;102535.78;10460475;28;20056;-69
2023/02/19 12:53:13;;;;;;;4.30;2.22;;;;;;;9.57;100.00;102548.53;10461503;28;20368;-69
2023/02/19 12:58:29;;;;;;;2.00;1.35;;;;;;;9.56;100.00;102552.25;10441858;28;20032;-68
2023/02/19 13:03:41;;;;;;;2.40;1.97;;;;;;;9.87;100.00;102543.81;10458900;28;20074;-69
2023/02/19 13:08:44;;;;;;;2.45;1.77;;;;;;;10.06;100.00;102561.78;10443304;28;20044;-68
2023/02/19 13:13:48;;;;;;;4.55;1.50;;;;;;;10.24;100.00;102570.75;10474556;28;20029;-69
2023/02/19 13:18:57;;;;;;;1.65;1.00;;;;;;;10.37;100.00;102575.81;10458788;28;20036;-68
2023/02/19 13:23:57;;;;;;;1.23;1.10;;;;;;;10.30;100.00;102563.91;10456759;28;20036;-68
2023/02/19 13:29:19;;;;;;;1.27;1.17;;;;;;;10.25;100.00;102569.75;10474387;28;20123;-68
2023/02/19 13:34:38;;;;;;;0.80;0.80;;;;;;;9.81;100.00;102588.56;10459535;28;20068;-68
2023/02/19 13:39:48;;;;;;;0.75;0.75;;;;;;;9.61;100.00;102598.66;10457921;28;20028;-68
2023/02/19 13:44:49;;;;;;;0.75;0.75;;;;;;;9.25;100.00;102601.22;10440860;28;20029;-68
2023/02/19 13:49:49;;;;;;;1.38;0.70;;;;;;;9.13;100.00;102615.03;10458714;28;20368;-68
2023/02/19 13:54:50;;;;;;;1.75;1.23;;;;;;;9.05;100.00;102619.31;10458344;28;20052;-69
2023/02/19 13:59:54;;;;;;;1.75;0.80;;;;;;;9.13;100.00;102623.16;10455727;28;20033;-67
2023/02/19 14:05:13;;;;;;;1.42;1.30;;;;;;;9.13;100.00;102632.09;10455859;28;20048;-68
2023/02/19 14:10:49;;;;;;;0.82;0.82;;;;;;;8.98;100.00;102623.59;10471314;28;20477;-69
2023/02/19 14:15:50;;;;;;;1.85;0.98;;;;;;;8.90;100.00;102625.31;10469483;28;20079;-68
2023/02/19 14:20:50;;;;;;;2.75;1.40;;;;;;;8.83;100.00;102622.31;10456298;28;20064;-70
2023/02/19 14:26:02;;;;;;;0.70;0.70;;;;;;;8.92;100.00;102632.28;10455830;28;20036;-68
2023/02/19 14:31:25;;;;;;;1.45;1.08;;;;;;;8.89;100.00;102634.41;10456144;28;20100;-70
2023/02/19 14:36:31;;;;;;;1.02;0.98;;;;;;;8.93;100.00;102620.47;10458679;28;20457;-69
2023/02/19 14:41:32;;;;;;;1.30;1.17;;;;;;;9.66;100.00;102615.25;10473622;28;20391;-68
2023/02/19 14:46:37;;;;;;;1.75;1.08;;;;;;;9.80;100.00;102613.09;10455398;28;20037;-70
2023/02/19 14:51:39;;;;;;;3.90;1.38;;;;;;;9.87;100.00;102589.81;10438679;28;20029;-67
2023/02/19 14:56:39;;;;;;;2.55;1.27;;;;;;;9.73;100.00;102605.56;10438850;28;20476;-68
2023/02/19 15:01:40;;;;;;;0.60;0.60;;;;;;;9.61;100.00;102603.22;10455414;28;20060;-68
2023/02/19 15:06:40;;;;;;;2.67;0.68;;;;;;;9.96;100.00;102594.31;10471882;28;20033;-71
2023/02/19 15:11:41;;;;;;;2.28;1.38;;;;;;;9.99;100.00;102605.69;10460277;28;20033;-69
2023/02/19 15:16:41;;;;;;;5.10;1.33;;;;;;;9.56;100.00;102611.75;10465217;28;20061;-69
2023/02/19 15:21:46;;;;;;;1.60;1.23;;;;;;;9.05;100.00;102621.16;10447677;28;20181;-68
2023/02/19 15:26:51;;;;;;;0.80;0.80;;;;;;;8.82;100.00;102626.03;10479622;28;20457;-68
2023/02/19 15:31:56;;;;;;;1.23;0.93;;;;;;;8.69;100.00;102623.63;10462609;28;20051;-69
2023/02/19 15:37:01;;;;;;;4.93;2.22;;;;;;;8.68;100.00;102627.34;10444607;28;20033;-68
2023/02/19 15:42:02;;;;;;;0.70;0.70;;;;;;;8.66;100.00;102644.66;10445362;28;20033;-69
2023/02/19 15:47:25;;;;;;;0.57;0.57;;;;;;;8.49;100.00;102633.56;10444590;28;20431;-68
2023/02/19 15:52:34;;;;;;;1.20;1.08;;;;;;;8.29;100.00;102632.66;10476756;28;20456;-68
2023/02/19 15:57:36;;;;;;;3.17;1.52;;;;;;;8.19;100.00;102647.13;10460169;28;20057;-68
2023/02/19 16:02:36;;;;;;;2.85;1.33;;;;;;;8.13;100.00;102653.94;10462311;28;20045;-68
2023/02/19 16:07:37;;;;;;;1.92;1.40;;;;;;;7.98;100.00;102661.56;10477609;28;20049;-68
2023/02/19 16:12:37;;;;;;;0.85;0.77;;;;;;;7.79;100.00;102666.91;10477356;28;20040;-67
2023/02/19 16:17:40;;;;;;;0.75;0.75;;;;;;;7.54;100.00;102668.22;10477966;28;20059;-68
2023/02/19 16:22:40;;;;;;;6.70;1.13;;;;;;;7.40;100.00;102675.66;10443837;28;20120;-68
2023/02/19 16:27:41;;;;;;;0.93;0.93;;;;;;;7.11;100.00;102670.06;10462460;28;20368;-67
2023/02/19 16:32:44;;;;;;;3.40;1.48;;;;;;;6.99;100.00;102652.28;10460743;28;20037;-68
2023/02/19 16:37:57;;;;;;;2.70;0.63;;;;;;;6.84;100.00;102656.28;10460931;28;20037;-68
2023/02/19 16:43:04;;;;;;;2.65;1.20;;;;;;;6.61;100.00;102659.06;10443192;28;20077;-68
2023/02/19 16:48:05;;;;;;;4.70;2.05;;;;;;;6.43;100.00;102650.69;10461273;28;20111;-67
2023/02/19 16:53:06;;;;;;;2.83;2.03;;;;;;;6.32;100.00;102647.16;10442365;28;20417;-67
2023/02/19 16:58:07;;;;;;;1.08;1.08;;;;;;;6.19;100.00;102675.09;10461146;28;20037;-68
2023/02/19 17:03:09;;;;;;;1.60;1.50;;;;;;;6.09;100.00;102684.88;10460319;28;20061;-67
2023/02/19 17:08:35;;;;;;;2.92;2.63;;;;;;;6.03;100.00;102690.75;10442009;28;20040;-68
2023/02/19 17:13:35;;;;;;;3.15;1.60;;;;;;;5.95;100.00;102674.38;10460975;28;20037;-68
2023/02/19 17:18:36;;;;;;;2.40;1.80;;;;;;;5.92;100.00;102693.41;10475504;28;20029;-67
2023/02/19 17:23:36;;;;;;;10.77;3.00;;;;;;;5.85;100.00;102698.44;10459804;28;20485;-68
2023/02/19 17:28:36;;;;;;;4.22;2.83;;;;;;;5.76;100.00;102697.31;10441775;28;20041;-68
2023/02/19 17:33:37;;;;;;;4.93;2.28;;;;;;;5.70;100.00;102695.13;10458651;28;20037;-68
2023/02/19 17:38:37;;;;;;;7.88;2.63;;;;;;;5.64;100.00;102700.13;10458677;28;20032;-68
2023/02/19 17:43:38;;;;;;;6.45;3.00;;;;;;;5.61;100.00;102709.28;10457248;28;20036;-69
2023/02/19 17:48:38;;;;;;;2.58;2.17;;;;;;;5.67;100.00;102706.13;10459013;28;20033;-68
2023/02/19 17:53:39;;;;;;;3.92;2.67;;;;;;;5.69;100.00;102704.19;10457137;28;20341;-68
2023/02/19 17:58:39;;;;;;;7.20;3.97;;;;;;;5.69;100.00;102708.69;10474078;28;20025;-68
2023/02/19 18:03:39;;;;;;;6.45;3.45;;;;;;;5.65;100.00;102705.41;10457568;28;20061;-65
2023/02/19 18:08:50;;;;;;;2.33;2.10;;;;;;;5.67;100.00;102706.13;10475027;28;20037;-68
2023/02/19 18:13:50;;;;;;;5.22;3.00;;;;;;;5.69;100.00;102714.06;10474467;28;20094;-68
2023/02/19 18:18:51;;;;;;;3.03;2.40;;;;;;;5.69;100.00;102696.09;10439629;28;20535;-68
2023/02/19 18:23:51;;;;;;;4.63;2.63;;;;;;;5.66;100.00;102687.44;10457794;28;20094;-68
2023/02/19 18:28:51;;;;;;;5.60;2.75;;;;;;;5.65;100.00;102667.78;10457163;28;20476;-68
2023/02/19 18:33:52;;;;;;;4.95;1.95;;;;;;;5.69;100.00;102644.19;10439103;28;20145;-67
2023/02/19 18:38:52;;;;;;;2.30;2.10;;;;;;;5.63;100.00;102661.66;10472254;28;20037;-68
2023/02/19 18:43:53;;;;;;;5.28;3.03;;;;;;;5.63;100.00;102672.41;10456249;28;20037;-68
2023/02/19 18:48:53;;;;;;;8.85;2.17;;;;;;;5.72;100.00;102668.13;10471773;28;20496;-67
2023/02/19 18:53:53;;;;;;;7.25;3.05;;;;;;;5.63;100.00;102671.56;10456300;28;20033;-68
2023/02/19 18:58:54;;;;;;;9.13;2.75;;;;;;;5.57;100.00;102679.13;10455993;28;20187;-67
2023/02/19 19:03:54;;;;;;;8.23;2.75;;;;;;;5.58;100.00;102691.59;10455796;28;20057;-68
2023/02/19 19:08:54;;;;;;;3.33;2.47;;;;;;;5.58;100.00;102679.97;10455539;28;20473;-67
2023/02/19 19:13:55;;;;;;;14.15;3.42;;;;;;;5.58;100.00;102680.84;10456855;28;20085;-67
2023/02/19 19:18:55;;;;;;;7.97;3.42;;;;;;;5.59;100.00;102676.31;10455809;28;20057;-67
2023/02/19 19:23:56;;;;;;;7.00;4.57;;;;;;;5.63;100.00;102671.56;10456838;28;20107;-67
2023/02/19 19:28:56;;;;;;;4.68;3.00;;;;;;;5.56;100.00;102663.13;10456023;28;20044;-69
2023/02/19 19:33:56;;;;;;;9.40;3.88;;;;;;;5.62;100.00;102670.69;10454385;28;20480;-68
2023/02/19 19:38:57;;;;;;;13.05;2.47;;;;;;;5.63;100.00;102668.88;10437902;28;20040;-67
2023/02/19 19:43:57;;;;;;;4.32;2.90;;;;;;;5.59;100.00;102670.94;10456830;28;20037;-67
2023/02/19 19:48:58;;;;;;;7.30;3.00;;;;;;;5.66;100.00;102666.78;10454695;28;20040;-67
2023/02/19 19:53:59;;;;;;;7.30;2.80;;;;;;;5.69;100.00;102661.16;10455214;28;20039;-67
2023/02/19 19:59:00;;;;;;;6.38;3.22;;;;;;;5.73;100.00;102668.00;10460620;28;20025;-67
2023/02/19 20:04:00;;;;;;;5.22;3.90;;;;;;;5.80;100.00;102657.59;10463860;28;20171;-67
2023/02/19 20:09:01;;;;;;;9.68;4.32;;;;;;;5.76;100.00;102665.06;10444797;28;20036;-67
2023/02/19 20:14:01;;;;;;;5.88;4.70;;;;;;;5.68;100.00;102663.97;10462438;28;20103;-67
2023/02/19 20:19:02;;;;;;;5.38;4.88;;;;;;;5.62;100.00;102656.41;10461656;28;20029;-67
2023/02/19 20:24:02;;;;;;;6.95;4.35;;;;;;;5.59;100.00;102657.50;10462371;28;20052;-67
2023/02/19 20:29:04;;;;;;;8.45;4.60;;;;;;;5.55;100.00;102650.63;10462374;28;20029;-67
2023/02/19 20:34:05;;;;;;;8.25;4.22;;;;;;;5.53;100.00;102644.56;10461176;28;20153;-67
2023/02/19 20:39:05;;;;;;;6.28;5.47;;;;;;;5.51;100.00;102641.13;10464315;28;20092;-67
2023/02/19 20:44:06;;;;;;;9.35;7.20;;;;;;;5.49;100.00;102630.50;10460679;28;20041;-66
2023/02/19 20:49:06;;;;;;;5.90;5.10;;;;;;;5.49;100.00;102630.50;10444018;28;20037;-67
2023/02/19 20:54:06;;;;;;;7.07;6.38;;;;;;;5.54;100.00;102635.50;10476368;28;20057;-70
2023/02/19 20:59:07;;;;;;;12.27;6.70;;;;;;;5.55;100.00;102627.34;10460816;28;20041;-68
2023/02/19 21:04:07;;;;;;;12.48;5.75;;;;;;;5.52;100.00;102632.06;10460667;28;20084;-68
2023/02/19 21:09:08;;;;;;;9.57;5.45;;;;;;;5.54;100.00;102627.44;10441787;28;20025;-67
2023/02/19 21:14:08;;;;;;;10.85;6.78;;;;;;;5.48;100.00;102622.56;10442093;28;20116;-67
2023/02/19 21:19:09;;;;;;;11.30;5.97;;;;;;;5.53;100.00;102618.53;10442196;28;20033;-68
2023/02/19 21:24:09;;;;;;;6.47;5.88;;;;;;;5.54;100.00;102614.84;10442592;28;20037;-67
2023/02/19 21:29:14;;;;;;;14.77;6.25;;;;;;;5.55;100.00;102630.03;10458362;28;20025;-67
2023/02/19 21:34:16;;;;;;;8.02;5.88;;;;;;;5.55;100.00;102595.09;10459495;28;20426;-66
2023/02/19 21:39:17;;;;;;;14.20;5.80;;;;;;;5.53;100.00;102594.34;10459169;28;20040;-68
2023/02/19 21:44:19;;;;;;;8.23;7.43;;;;;;;5.55;100.00;102592.41;10474679;28;20041;-68
2023/02/19 21:49:20;;;;;;;14.90;8.05;;;;;;;5.52;100.00;102587.28;10474709;28;20090;-68
2023/02/19 21:54:25;;;;;;;13.05;8.25;;;;;;;5.55;100.00;102588.84;10475522;28;20535;-68
2023/02/19 21:59:26;;;;;;;14.18;8.30;;;;;;;5.55;100.00;102584.34;10443929;28;20025;-67
2023/02/19 22:04:26;;;;;;;14.38;8.40;;;;;;;5.70;100.00;102595.66;10461978;28;20337;-67
2023/02/19 22:09:26;;;;;;;14.50;7.38;;;;;;;5.90;100.00;102587.81;10459717;28;20037;-68
2023/02/19 22:14:27;;;;;;;18.80;8.68;;;;;;;6.06;100.00;102588.28;10441061;28;20104;-67
2023/02/19 22:19:27;;;;;;;13.80;8.63;;;;;;;6.14;100.00;102585.00;10456853;28;20037;-68
2023/02/19 22:24:28;;;;;;;15.52;9.57;;;;;;;6.14;100.00;102569.69;10424351;28;20369;-68
2023/02/19 22:29:28;;;;;;;12.15;7.03;;;;;;;6.15;100.00;102581.31;10457190;28;20373;-67
2023/02/19 22:34:29;;;;;;;14.25;9.52;;;;;;;6.22;100.00;102571.75;10474341;28;20128;-67
2023/02/19 22:39:29;;;;;;;20.27;9.38;;;;;;;6.30;100.00;102561.19;10455960;28;20420;-67
2023/02/19 22:44:29;;;;;;;30.35;10.05;;;;;;;6.34;100.00;102575.25;10457639;28;20120;-68
2023/02/19 22:49:30;;;;;;;22.67;10.82;;;;;;;6.36;100.00;102557.16;10439136;28;20489;-67
2023/02/19 22:54:30;;;;;;;17.05;8.43;;;;;;;6.37;100.00;102556.16;10464681;28;20043;-67
2023/02/19 22:59:32;;;;;;;17.63;9.52;;;;;;;6.45;100.00;102556.38;10463800;28;20511;-67
2023/02/19 23:04:32;;;;;;;11.63;8.45;;;;;;;6.49;100.00;102544.34;10457693;28;20053;-68
2023/02/19 23:09:33;;;;;;;16.65;10.18;;;;;;;6.48;100.00;102548.91;10456649;28;20064;-67
2023/02/19 23:14:33;;;;;;;19.70;9.40;;;;;;;6.42;100.00;102535.97;10456286;28;20040;-67
2023/02/19 23:19:34;;;;;;;12.18;9.68;;;;;;;6.21;100.00;102522.47;10455331;28;20476;-67
2023/02/19 23:24:34;;;;;;;11.93;9.80;;;;;;;6.13;100.00;102524.97;10454840;28;20033;-67
2023/02/19 23:29:34;;;;;;;14.73;10.63;;;;;;;6.11;100.00;102532.31;10437804;28;20396;-67
2023/02/19 23:34:35;;;;;;;13.98;10.23;;;;;;;6.05;100.00;102535.50;10445737;28;20099;-68
2023/02/19 23:39:35;;;;;;;13.85;9.85;;;;;;;6.07;100.00;102520.09;10446208;28;20128;-67